neil on the web!

ADDS Results

0536 UTC 16 February 2019

EGJB 160520Z 23010KT 2500 BR FEW001 SCT002 BKN003 10/10 Q1024
EGJB 160450Z 22008KT 1800 BR FEW000 BKN001 09/09 Q1024
EGJB 160420Z 22010KT 1800 BR FEW000 BKN001 09/09 Q1023
EGJB 160350Z 23012KT 6000 FEW005 BKN006 09/09 Q1023
TAF EGJB 160509Z 1606/1615 22010KT 6000 BKN006
TEMPO 1606/1615 2000 BR BKN002
PROB30
TEMPO 1606/1613 0200 FG BKN000
BECMG 1614/1615 16010KT
EGJJ 160520Z AUTO 26012KT 3700 HZ BKN002/// OVC003/// 09/08 Q1024
EGJJ 160450Z AUTO 27009KT 9999 BKN006/// OVC008/// 09/08 Q1024
EGJJ 160420Z AUTO 23011KT 9999 OVC015/// 09/07 Q1024
EGJJ 160350Z AUTO 18004KT 150V210 9999 OVC016/// 08/07 Q1024
TAF EGJJ 160509Z 1606/1615 21010KT 9999 BKN012
TEMPO 1606/1612 5000 BR BKN005
PROB30
TEMPO 1606/1612 0500 FG BKN000
BECMG 1612/1614 15010KT
EGKK 160520Z VRB01KT 4100 BR BKN020 M00/M00 Q1023
EGKK 160450Z 11001KT 2500 BR SCT016 M00/M01 Q1023
EGKK 160420Z 00000KT 2500 BR NSC M00/M01 Q1022
EGKK 160350Z VRB01KT 3500 BR NSC M00/M00 Q1022
TAF EGKK 160503Z 1606/1712 19003KT 2000 BR FEW045
BECMG 1606/1608 5000 BKN008
PROB40 1606/1608 0300 FG VV///
PROB40
TEMPO 1608/1612 -DZ BKN003
BECMG 1612/1615 9999 NSW
PROB30
TEMPO 1615/1621 8000
BECMG 1621/1624 4000 BR NSC
PROB30 1700/1705 0900 FG BKN001
BECMG 1705/1708 9999 NSW
BECMG 1709/1712 20013KT
EGSS 160520Z AUTO 21007KT 3600 BR NCD 03/03 Q1022
EGSS 160450Z AUTO 23008KT 4600 HZ NCD 04/03 Q1022
EGSS 160420Z AUTO 23007KT 4800 HZ NCD 03/02 Q1021
EGSS 160350Z AUTO 22006KT 5000 HZ NCD 03/02 Q1021
TAF EGSS 160454Z 1606/1712 20009KT 4000 BR FEW030
BECMG 1606/1609 8000 NSW BKN008
TEMPO 1606/1615 9999 BKN020
TEMPO 1615/1618 4000 BR BKN003
BECMG 1618/1621 4000 BR BKN004
TEMPO 1618/1702 0300 DZ FG BKN001
BECMG 1702/1705 14010KT 9999 NSW FEW030
TEMPO 1705/1709 4000 BR MIFG
EGGW 160520Z AUTO 18004KT 140V210 4800 BR BKN022 05/04 Q1021
EGGW 160450Z AUTO VRB03KT 4900 BR BKN022 04/04 Q1021
EGGW 160420Z AUTO 18005KT 150V220 5000 BR FEW020 04/04 Q1021
EGGW 160350Z AUTO 19005KT 150V210 5000 BR NCD 04/04 Q1021
TAF EGGW 160454Z 1606/1706 21009KT 4000 BR FEW030
BECMG 1606/1609 8000 NSW BKN008
TEMPO 1606/1615 9999 BKN020
TEMPO 1615/1618 4000 BR BKN002
BECMG 1618/1621 4000 BR BKN003
TEMPO 1618/1702 0300 DZ FG BKN001
BECMG 1702/1704 15010KT 9999 NSW FEW040
TEMPO 1704/1706 4000 BR MIFG
EGSH 160520Z AUTO 21008KT 9999 NCD 05/03 Q1021
EGSH 160450Z AUTO 20008KT 9999 NCD 05/03 Q1021
EGSH 160420Z AUTO 20009KT 9999 NCD 05/03 Q1021
EGSH 160350Z AUTO 20008KT 9999 NCD 05/03 Q1021
TAF EGSH 160457Z 1606/1615 21009KT 9999 FEW020
EGLC 160520Z AUTO 20004KT 7000 NCD 07/05 Q1022
EGLC 160450Z AUTO 21005KT 7000 NCD 07/05 Q1022
EGLC 160420Z AUTO 22004KT 8000 NCD 08/05 Q1022
EGLC 160350Z AUTO 23004KT 9000 NCD 08/05 Q1022
TAF EGLC 160503Z 1606/1612 19005KT 9999 FEW045
TEMPO 1606/1612 7000 -DZ BKN012
PROB30
TEMPO 1608/1612 BKN007
EGMC 160520Z 21007KT CAVOK 05/01 Q1022
TAF EGMC 152300Z 1600/1609 19005KT 9999 FEW045
BECMG 1600/1602 2000 BR
PROB30 1602/1609 0300 FG VV///
BECMG 1605/1608 4000 BKN005
EGLL 160520Z AUTO 23004KT 190V260 2600 BR BKN026 05/04 Q1023 BECMG 5000 BR
EGLL 160450Z AUTO 17006KT 120V200 2600 BR BKN022 04/04 Q1022
EGLL 160420Z AUTO 22001KT 2700 HZ SCT022 04/04 Q1022 NOSIG
EGLL 160350Z AUTO 20003KT 2900 HZ NCD 05/04 Q1022 BECMG BKN008
TAF EGLL 160457Z 1606/1712 20006KT 7000 BKN015
TEMPO 1606/1615 BKN008
PROB30
TEMPO 1606/1612 4000 BR BKN004
BECMG 1615/1618 BKN005
PROB40
TEMPO 1618/1702 3000 BR BKN003
BECMG 1700/1703 NSC
PROB40 1702/1705 4000 BR
BECMG 1705/1708 9999
TAF AMD EGHI 152155Z 1521/1523 16006KT 0300 FG VV///
TEMPO 1521/1523 3000 BR SCT004
TAF AMD EGHH 152055Z 1521/1606 17006KT 0300 FG BKN001
TEMPO 1521/1603 3000 BR BKN005
TEMPO 1603/1606 2000 -RADZ BR BKN004
EGCC 160520Z AUTO 21005KT 150V230 9999 BKN025 08/05 Q1018 NOSIG
EGCC 160450Z AUTO 21005KT 9999 OVC026 08/06 Q1018 NOSIG
EGCC 160420Z AUTO 20006KT 9999 SCT029 08/06 Q1018 NOSIG
EGCC 160350Z AUTO 19006KT 9999 FEW028 09/06 Q1017 NOSIG
TAF EGCC 160457Z 1606/1712 22010KT 9999 SCT025
TEMPO 1616/1706 BKN012
BECMG 1620/1623 16012KT
PROB30
TEMPO 1623/1712 18015G25KT
PROB30
TEMPO 1710/1712 BKN012
EGNX 160520Z 21010KT 9999 BKN025 08/07 Q1019
EGNX 160450Z 21009KT 9999 BKN025 08/07 Q1019
EGNX 160420Z 20007KT 9999 BKN025 08/06 Q1018
EGNX 160350Z 21008KT 9999 SCT019 08/06 Q1018
TAF EGNX 160456Z 1606/1706 22009KT 9999 SCT025
PROB30
TEMPO 1606/1608 7000 -RADZ BKN006
BECMG 1616/1619 BKN014
BECMG 1618/1621 16010KT
PROB30
TEMPO 1621/1705 5000 BR BKN003
BECMG 1704/1706 FEW040
EGGP 160520Z 18007KT CAVOK 10/06 Q1018
EGGP 160450Z 19007KT CAVOK 09/05 Q1018
EGGP 160420Z 22007KT CAVOK 10/05 Q1018
EGGP 160350Z 24008KT CAVOK 10/06 Q1018
TAF EGGP 160457Z 1606/1706 22012KT 9999 FEW025
BECMG 1616/1619 16014KT
TEMPO 1616/1706 BKN012
PROB30
TEMPO 1619/1624 BKN009
PROB30
TEMPO 1621/1706 17017G27KT
EGNM 160520Z VRB02KT 9999 SCT020 08/05 Q1017
EGNM 160450Z 24005KT 180V280 9999 SCT015 BKN022 08/05 Q1017
EGNM 160420Z 26006KT 200V320 9999 FEW023 09/07 Q1016
EGNM 160350Z 24010KT 200V270 9999 BKN026 09/06 Q1016
TAF EGNM 160454Z 1606/1706 22010KT 9999 FEW015 BKN025
BECMG 1617/1620 14009KT
PROB40
TEMPO 1619/1622 8000 BKN012
TEMPO 1622/1706 4000 BR BKN007
EGBB 160520Z 21004KT 170V250 9000 OVC009 09/08 Q1020
EGBB 160450Z 20005KT 150V250 9000 BKN009 OVC026 09/08 Q1019
EGBB 160420Z 18007KT 9999 OVC024 09/07 Q1019
EGBB 160350Z 19007KT 9999 OVC024 09/07 Q1019
TAF EGBB 160456Z 1606/1706 22008KT 9000 BKN009
BECMG 1606/1609 9999 SCT025
BECMG 1613/1616 BKN014
BECMG 1618/1621 16010KT
PROB30
TEMPO 1618/1704 5000 BR BKN003
BECMG 1703/1706 FEW040
EGGD 160520Z AUTO 20007KT 2400 BR OVC001 09/08 Q1021
EGGD 160450Z AUTO 20008KT 1300 HZ OVC001 09/08 Q1021
EGGD 160420Z AUTO 20008KT 2400 HZ BKN002 OVC005 09/08 Q1021
EGGD 160350Z AUTO 18005KT 4400 HZ OVC006 09/08 Q1021
TAF AMD EGGD 160454Z 1604/1624 20009KT 9999 FEW035
TEMPO 1604/1606 6000 BKN005
PROB30
TEMPO 1604/1606 1000 -DZ BR BKN001
BECMG 1610/1613 BKN012
TEMPO 1611/1616 6000 -DZ BKN008
BECMG 1615/1618 14010KT
TEMPO 1616/1624 3000 BR BKN003
PROB30
TEMPO 1616/1624 1200 DZ BKN001
EGFF 160520Z AUTO 27008KT 9999 BKN018 OVC026 10/09 Q1021
EGFF 160450Z AUTO 27011KT 9999 FEW005 BKN011 OVC016 09/09 Q1021 RERA REDZ
EGFF 160420Z AUTO VRB03KT 1400 BR OVC004 08/08 Q1021 RERA REDZ
EGFF 160350Z AUTO 19004KT 160V230 2100 RADZ BKN007 OVC012 08/07 Q1021
TAF EGFF 160456Z 1606/1706 20011KT 9999 BKN011
BECMG 1606/1609 SCT025
BECMG 1612/1615 BKN010
TEMPO 1612/1621 7000 -RADZ BKN006
BECMG 1615/1618 13010KT
PROB40
TEMPO 1617/1621 4000 BR BKN002
TEMPO 1621/1624 2000 BR BKN002
BECMG 1623/1702 FEW040
TAF EGTE 152302Z 1600/1604 VRB03KT 7000 FEW008
TEMPO 1600/1604 4000 -RA BR BKN008
EGPF 160520Z AUTO 22013KT 9999 BKN021 OVC037 09/07 Q1011
EGPF 160450Z AUTO 21012KT 9999 SCT024 OVC037 10/07 Q1011
EGPF 160420Z AUTO 22015KT 9999 OVC036 10/07 Q1011
EGPF 160350Z AUTO 22014KT 9999 SCT026 OVC032 10/07 Q1011
TAF EGPF 160457Z 1606/1706 21012KT 9999 SCT025
TEMPO 1619/1706 18015G25KT
TEMPO 1620/1702 BKN009
EGPH 160520Z 22010KT 9999 OVC042 10/05 Q1011
EGPH 160450Z 22010KT 9999 OVC038 10/05 Q1011
EGPH 160420Z 23013KT 9999 OVC044 10/05 Q1011
EGPH 160350Z 23012KT 9999 OVC040 10/06 Q1011
TAF EGPH 160457Z 1606/1706 23012KT 9999 SCT035
TEMPO 1620/1702 BKN012
PROB40
TEMPO 1622/1706 19015G25KT
EGPK 160450Z 21009KT 9999 BKN035 10/07 Q1012
EGPK 160350Z 20009KT 9999 BKN037 10/06 Q1012
TAF EGPK 160457Z 1606/1706 20010KT 9999 SCT035
TEMPO 1619/1624 BKN008
TEMPO 1621/1706 18018G28KT
EHAM 160525Z 17007KT CAVOK 02/01 Q1024 NOSIG
EHAM 160455Z 17008KT CAVOK 03/01 Q1024 NOSIG
EHAM 160425Z 17008KT CAVOK 02/00 Q1024 NOSIG
EHAM 160355Z 17007KT CAVOK 02/M00 Q1024 NOSIG
TAF EHAM 160450Z 1606/1712 19008KT CAVOK
PROB30 1612/1619 SCT008 BKN015
BECMG 1623/1702 16008KT
PROB30
TEMPO 1703/1707 4000 BR
LFLS 160530Z AUTO 09010KT CAVOK 00/M03 Q1029 NOSIG
LFLS 160500Z AUTO 08011KT CAVOK 01/M03 Q1029 NOSIG
LFLS 160430Z AUTO 08011KT CAVOK 02/M03 Q1029 NOSIG
LFLS 160400Z AUTO 09010KT CAVOK 00/M03 Q1029 NOSIG
TAF LFLS 160200Z 1603/1703 09005KT CAVOK
TEMPO 1612/1618 23007KT
LFLL 160530Z 15007KT CAVOK 02/M00 Q1029 NOSIG
LFLL 160500Z 14007KT CAVOK 03/M01 Q1029 NOSIG
LFLL 160430Z 15009KT CAVOK 05/M00 Q1029 NOSIG
LFLL 160400Z VRB02KT CAVOK 04/01 Q1029 NOSIG
TAF LFLL 160500Z 1606/1712 16005KT CAVOK
LFLC 160530Z AUTO 01003KT 330V070 CAVOK 02/M08 Q1028 NOSIG
LFLC 160500Z AUTO 01004KT CAVOK 02/M08 Q1028 NOSIG
LFLC 160430Z AUTO VRB02KT CAVOK 02/M07 Q1027 NOSIG
LFLC 160400Z AUTO 31004KT 270V340 CAVOK 03/M08 Q1027 NOSIG
TAF LFLC 160200Z 1603/1703 16010G20KT CAVOK
TEMPO 1603/1608 VRB03KT
BECMG 1614/1617 18006KT
LFRD 160530Z AUTO 19007KT CAVOK 04/02 Q1025 TEMPO 0300 FG VV///
LFRD 160500Z AUTO 18007KT CAVOK 05/02 Q1024 TEMPO 0300 FG VV///
LFRD 160430Z AUTO 19006KT CAVOK 04/02 Q1024 TEMPO 0300 FG VV///
LFRD 160400Z AUTO 19007KT CAVOK 04/02 Q1024 TEMPO 0300 FG VV///
TAF LFRD 160500Z 1606/1706 18008KT CAVOK
TEMPO 1606/1612 3000 BR BKN003
PROB40
TEMPO 1606/1609 0300 FG VV///
TEMPO 1620/1706 3000 BR BKN003
BECMG 1704/1706 17015G25KT
LFRC 160530Z AUTO 21007KT 7000 OVC012 06/05 Q1024 TEMPO 3000 BR BKN002
LFRC 160500Z AUTO 21008KT 7000 OVC014 06/05 Q1024
LFRC 160430Z AUTO 21008KT 7000 FEW013 05/04 Q1024
LFRC 160400Z AUTO 21008KT 8000 NSC 06/05 Q1023
TAF LFRC 160500Z 1606/1615 20008KT 9999 BKN012
PROB40
TEMPO 1606/1610 3000 BR BKN002
BECMG 1613/1615 SCT010
VHHH 160530Z 28007KT 9999 FEW030 27/18 Q1016 NOSIG
VHHH 160500Z 26010KT 9999 FEW025 27/17 Q1017 NOSIG
VHHH 160430Z 23009KT 190V270 9999 FEW025 27/17 Q1018 NOSIG
VHHH 160425Z 18009KT 080V250 9999 FEW025 28/17 Q1018 NOSIG
VHHH 160400Z 10010KT 080V160 9999 FEW020 28/17 Q1018 NOSIG
TAF VHHH 160500Z 1606/1712 26010KT 9999 FEW025 TX28/1606Z TX23/1706Z TN20/1622Z
BECMG 1608/1610 10010KT
BECMG 1622/1624 10015G25KT